Terminal Aerodrome Forecast
Issued by NWS

Home | Current Version | Previous Version | Text Only | Print | Product List | Glossary On
Versions: 1 2 3 4 5 6 7 8 9 10 11 12 13 14 15 16 17 18 19
000
FTUS42 KGSP 190526
TAFAND
TAF
KAND 190526Z 1906/2006 00000KT P6SM BKN200
     FM191200 06003KT P6SM BKN100
     FM191500 07008KT P6SM BKN080
     FM192200 11004KT P6SM OVC100 PROB30 2001/2005 4SM -SHRA OVC025
     FM200500 10005KT 5SM -SHRA OVC035=

USA.gov is the U.S. government's official web portal to all federal, state and local government web resources and services.